sensor_id;sensor_type;location;lat;lon;timestamp;temperature;humidity
18868;DHT22;9563;49.240;9.088;2024-02-15T05:02:01;9.80;99.90
18868;DHT22;9563;49.240;9.088;2024-02-15T05:04:28;9.80;99.90
18868;DHT22;9563;49.240;9.088;2024-02-15T05:06:55;9.80;99.90
18868;DHT22;9563;49.240;9.088;2024-02-15T05:09:22;9.80;99.90
18868;DHT22;9563;49.240;9.088;2024-02-15T05:11:49;9.90;99.90
18868;DHT22;9563;49.240;9.088;2024-02-15T05:14:18;9.90;99.90
18868;DHT22;9563;49.240;9.088;2024-02-15T05:16:46;10.00;99.90
18868;DHT22;9563;49.240;9.088;2024-02-15T05:19:15;9.90;99.90
18868;DHT22;9563;49.240;9.088;2024-02-15T05:21:43;10.00;99.90
18868;DHT22;9563;49.240;9.088;2024-02-15T05:24:12;10.00;99.90
18868;DHT22;9563;49.240;9.088;2024-02-15T05:26:39;10.00;99.90
18868;DHT22;9563;49.240;9.088;2024-02-15T05:29:08;10.10;99.90
18868;DHT22;9563;49.240;9.088;2024-02-15T05:31:36;10.00;99.90
18868;DHT22;9563;49.240;9.088;2024-02-15T05:34:04;10.00;99.90
18868;DHT22;9563;49.240;9.088;2024-02-15T05:36:32;10.00;99.90
18868;DHT22;9563;49.240;9.088;2024-02-15T05:38:59;10.00;99.90
18868;DHT22;9563;49.240;9.088;2024-02-15T05:41:28;10.10;99.90
18868;DHT22;9563;49.240;9.088;2024-02-15T05:43:55;10.10;99.90
18868;DHT22;9563;49.240;9.088;2024-02-15T05:46:23;10.10;99.90
18868;DHT22;9563;49.240;9.088;2024-02-15T05:48:51;10.10;99.90
18868;DHT22;9563;49.240;9.088;2024-02-15T05:51:18;10.10;99.90
18868;DHT22;9563;49.240;9.088;2024-02-15T05:53:46;10.10;99.90
18868;DHT22;9563;49.240;9.088;2024-02-15T05:56:15;10.10;99.90
18868;DHT22;9563;49.240;9.088;2024-02-15T05:58:42;10.10;99.90
18868;DHT22;9563;49.240;9.088;2024-02-15T06:01:09;10.10;99.90
18868;DHT22;9563;49.240;9.088;2024-02-15T06:03:37;10.10;99.90
18868;DHT22;9563;49.240;9.088;2024-02-15T06:06:06;10.00;99.90
18868;DHT22;9563;49.240;9.088;2024-02-15T06:08:33;10.10;99.90
18868;DHT22;9563;49.240;9.088;2024-02-15T06:11:02;10.20;99.90
18868;DHT22;9563;49.240;9.088;2024-02-15T06:13:31;10.10;99.90
18868;DHT22;9563;49.240;9.088;2024-02-15T06:15:58;10.10;99.90
18868;DHT22;9563;49.240;9.088;2024-02-15T06:18:27;10.10;99.90
18868;DHT22;9563;49.240;9.088;2024-02-15T06:20:54;10.10;99.90
18868;DHT22;9563;49.240;9.088;2024-02-15T06:23:23;10.10;99.90
18868;DHT22;9563;49.240;9.088;2024-02-15T06:25:52;10.10;99.90
18868;DHT22;9563;49.240;9.088;2024-02-15T06:28:21;10.10;99.90
18868;DHT22;9563;49.240;9.088;2024-02-15T06:31:02;10.20;99.90
18868;DHT22;9563;49.240;9.088;2024-02-15T06:33:46;10.10;99.90
18868;DHT22;9563;49.240;9.088;2024-02-15T06:36:31;10.20;99.90
18868;DHT22;9563;49.240;9.088;2024-02-15T06:39:15;10.20;99.90
18868;DHT22;9563;49.240;9.088;2024-02-15T06:41:59;10.30;99.90
18868;DHT22;9563;49.240;9.088;2024-02-15T06:44:28;10.20;99.90
18868;DHT22;9563;49.240;9.088;2024-02-15T06:46:55;10.20;99.90
18868;DHT22;9563;49.240;9.088;2024-02-15T06:49:23;10.20;99.90
18868;DHT22;9563;49.240;9.088;2024-02-15T06:51:51;10.30;99.90
18868;DHT22;9563;49.240;9.088;2024-02-15T06:54:18;10.30;99.90
18868;DHT22;9563;49.240;9.088;2024-02-15T06:56:45;10.40;99.90
18868;DHT22;9563;49.240;9.088;2024-02-15T06:59:13;10.50;99.90
18868;DHT22;9563;49.240;9.088;2024-02-15T07:01:43;10.50;99.90
18868;DHT22;9563;49.240;9.088;2024-02-15T07:04:10;10.50;99.90
18868;DHT22;9563;49.240;9.088;2024-02-15T07:06:38;10.60;99.90
18868;DHT22;9563;49.240;9.088;2024-02-15T07:09:05;10.70;99.90
18868;DHT22;9563;49.240;9.088;2024-02-15T07:11:32;10.70;99.90
18868;DHT22;9563;49.240;9.088;2024-02-15T07:14:00;10.80;99.90
18868;DHT22;9563;49.240;9.088;2024-02-15T07:16:27;10.90;99.90
18868;DHT22;9563;49.240;9.088;2024-02-15T07:18:56;10.90;99.90
18868;DHT22;9563;49.240;9.088;2024-02-15T07:21:24;10.90;99.90
18868;DHT22;9563;49.240;9.088;2024-02-15T07:23:53;11.10;99.90
18868;DHT22;9563;49.240;9.088;2024-02-15T07:26:20;11.10;99.90
18868;DHT22;9563;49.240;9.088;2024-02-15T07:28:50;11.10;99.90
18868;DHT22;9563;49.240;9.088;2024-02-15T07:31:19;11.00;99.90
18868;DHT22;9563;49.240;9.088;2024-02-15T07:33:47;11.10;99.90
18868;DHT22;9563;49.240;9.088;2024-02-15T07:36:19;11.20;99.90
18868;DHT22;9563;49.240;9.088;2024-02-15T07:38:47;11.30;99.90
18868;DHT22;9563;49.240;9.088;2024-02-15T07:41:14;11.20;99.90
18868;DHT22;9563;49.240;9.088;2024-02-15T07:43:41;11.30;99.90
18868;DHT22;9563;49.240;9.088;2024-02-15T07:46:11;11.40;99.90
18868;DHT22;9563;49.240;9.088;2024-02-15T07:48:41;11.40;99.90
18868;DHT22;9563;49.240;9.088;2024-02-15T07:51:11;11.50;99.90
18868;DHT22;9563;49.240;9.088;2024-02-15T07:53:42;11.60;99.90
18868;DHT22;9563;49.240;9.088;2024-02-15T07:56:09;11.80;99.90
18868;DHT22;9563;49.240;9.088;2024-02-15T07:58:39;11.90;99.90
18868;DHT22;9563;49.240;9.088;2024-02-15T08:01:07;12.00;99.90
18868;DHT22;9563;49.240;9.088;2024-02-15T08:03:35;12.10;99.90
18868;DHT22;9563;49.240;9.088;2024-02-15T08:06:02;12.20;99.90
18868;DHT22;9563;49.240;9.088;2024-02-15T08:08:33;12.30;99.90
18868;DHT22;9563;49.240;9.088;2024-02-15T08:11:03;12.40;99.90
18868;DHT22;9563;49.240;9.088;2024-02-15T08:13:30;12.40;99.90
18868;DHT22;9563;49.240;9.088;2024-02-15T08:15:57;12.60;99.90
18868;DHT22;9563;49.240;9.088;2024-02-15T08:18:24;12.50;99.90
18868;DHT22;9563;49.240;9.088;2024-02-15T08:20:51;12.40;99.90
18868;DHT22;9563;49.240;9.088;2024-02-15T08:23:18;12.50;99.90
18868;DHT22;9563;49.240;9.088;2024-02-15T08:25:45;12.50;99.90
18868;DHT22;9563;49.240;9.088;2024-02-15T08:28:13;12.40;99.90
18868;DHT22;9563;49.240;9.088;2024-02-15T08:30:40;12.40;99.90
18868;DHT22;9563;49.240;9.088;2024-02-15T08:33:07;12.40;99.90
18868;DHT22;9563;49.240;9.088;2024-02-15T08:35:36;12.30;99.90
18868;DHT22;9563;49.240;9.088;2024-02-15T08:38:05;12.30;99.90
18868;DHT22;9563;49.240;9.088;2024-02-15T08:40:32;12.20;99.90
18868;DHT22;9563;49.240;9.088;2024-02-15T08:43:00;12.30;99.90
18868;DHT22;9563;49.240;9.088;2024-02-15T08:45:30;12.40;99.90
18868;DHT22;9563;49.240;9.088;2024-02-15T08:47:56;12.40;99.90
18868;DHT22;9563;49.240;9.088;2024-02-15T08:50:23;12.40;99.90
18868;DHT22;9563;49.240;9.088;2024-02-15T08:52:50;12.40;99.90
18868;DHT22;9563;49.240;9.088;2024-02-15T08:55:18;12.50;99.90
18868;DHT22;9563;49.240;9.088;2024-02-15T08:57:49;12.40;99.90
18868;DHT22;9563;49.240;9.088;2024-02-15T09:00:16;12.40;99.90
18868;DHT22;9563;49.240;9.088;2024-02-15T09:02:45;12.50;99.90
18868;DHT22;9563;49.240;9.088;2024-02-15T09:05:12;12.70;99.90
18868;DHT22;9563;49.240;9.088;2024-02-15T09:07:40;12.80;99.90
18868;DHT22;9563;49.240;9.088;2024-02-15T09:10:08;13.20;99.90
18868;DHT22;9563;49.240;9.088;2024-02-15T09:12:36;13.40;99.90
18868;DHT22;9563;49.240;9.088;2024-02-15T09:15:06;13.70;99.90
18868;DHT22;9563;49.240;9.088;2024-02-15T09:17:33;14.00;99.90
18868;DHT22;9563;49.240;9.088;2024-02-15T09:20:07;14.50;99.90
18868;DHT22;9563;49.240;9.088;2024-02-15T09:22:34;14.90;99.90
18868;DHT22;9563;49.240;9.088;2024-02-15T09:25:02;15.20;99.90
18868;DHT22;9563;49.240;9.088;2024-02-15T09:27:29;15.60;99.90
18868;DHT22;9563;49.240;9.088;2024-02-15T09:29:58;15.60;99.90
18868;DHT22;9563;49.240;9.088;2024-02-15T09:32:25;15.90;99.90
18868;DHT22;9563;49.240;9.088;2024-02-15T09:34:52;16.10;99.90
18868;DHT22;9563;49.240;9.088;2024-02-15T09:37:21;16.40;99.90
18868;DHT22;9563;49.240;9.088;2024-02-15T09:39:48;16.40;99.90
18868;DHT22;9563;49.240;9.088;2024-02-15T09:42:14;16.50;99.90
18868;DHT22;9563;49.240;9.088;2024-02-15T09:44:47;16.70;99.90
18868;DHT22;9563;49.240;9.088;2024-02-15T09:47:18;16.80;99.90
18868;DHT22;9563;49.240;9.088;2024-02-15T09:49:46;17.00;99.90
18868;DHT22;9563;49.240;9.088;2024-02-15T09:52:13;17.10;99.90
18868;DHT22;9563;49.240;9.088;2024-02-15T09:54:45;17.20;99.90
18868;DHT22;9563;49.240;9.088;2024-02-15T09:57:12;17.10;99.90
18868;DHT22;9563;49.240;9.088;2024-02-15T09:59:39;17.20;99.90
18868;DHT22;9563;49.240;9.088;2024-02-15T10:02:07;17.30;99.90
18868;DHT22;9563;49.240;9.088;2024-02-15T10:04:37;17.30;99.90
18868;DHT22;9563;49.240;9.088;2024-02-15T10:07:04;17.40;99.90
18868;DHT22;9563;49.240;9.088;2024-02-15T10:09:34;17.30;99.90
18868;DHT22;9563;49.240;9.088;2024-02-15T10:12:05;17.40;99.90
18868;DHT22;9563;49.240;9.088;2024-02-15T10:14:34;17.50;99.90
18868;DHT22;9563;49.240;9.088;2024-02-15T10:17:06;17.30;99.90
18868;DHT22;9563;49.240;9.088;2024-02-15T10:19:35;17.70;99.90
18868;DHT22;9563;49.240;9.088;2024-02-15T10:22:06;17.80;99.90
18868;DHT22;9563;49.240;9.088;2024-02-15T10:24:34;18.00;99.90
18868;DHT22;9563;49.240;9.088;2024-02-15T10:27:01;18.30;99.90
18868;DHT22;9563;49.240;9.088;2024-02-15T10:29:31;18.40;99.90
18868;DHT22;9563;49.240;9.088;2024-02-15T10:31:59;18.50;99.90
18868;DHT22;9563;49.240;9.088;2024-02-15T10:34:26;18.50;99.90
18868;DHT22;9563;49.240;9.088;2024-02-15T10:36:53;18.40;99.90
18868;DHT22;9563;49.240;9.088;2024-02-15T10:39:22;18.20;99.90
18868;DHT22;9563;49.240;9.088;2024-02-15T10:41:51;18.20;99.90
18868;DHT22;9563;49.240;9.088;2024-02-15T10:44:19;18.10;99.90
18868;DHT22;9563;49.240;9.088;2024-02-15T10:46:49;18.10;99.90
18868;DHT22;9563;49.240;9.088;2024-02-15T10:49:22;17.90;99.90
18868;DHT22;9563;49.240;9.088;2024-02-15T10:51:51;17.90;99.90
18868;DHT22;9563;49.240;9.088;2024-02-15T10:54:30;17.60;99.90
18868;DHT22;9563;49.240;9.088;2024-02-15T10:57:04;17.60;99.90
18868;DHT22;9563;49.240;9.088;2024-02-15T10:59:32;17.60;99.90
18868;DHT22;9563;49.240;9.088;2024-02-15T11:02:13;17.60;99.90
18868;DHT22;9563;49.240;9.088;2024-02-15T11:04:48;17.80;99.90
18868;DHT22;9563;49.240;9.088;2024-02-15T11:07:17;18.00;99.90
18868;DHT22;9563;49.240;9.088;2024-02-15T11:09:45;18.30;99.90
18868;DHT22;9563;49.240;9.088;2024-02-15T11:12:12;18.50;99.90
18868;DHT22;9563;49.240;9.088;2024-02-15T11:14:44;18.60;99.90
18868;DHT22;9563;49.240;9.088;2024-02-15T11:17:45;18.80;99.90
18868;DHT22;9563;49.240;9.088;2024-02-15T11:20:48;18.80;99.90
18868;DHT22;9563;49.240;9.088;2024-02-15T11:23:25;18.70;99.90
18868;DHT22;9563;49.240;9.088;2024-02-15T11:25:56;18.50;99.90
18868;DHT22;9563;49.240;9.088;2024-02-15T11:28:40;18.40;99.90
18868;DHT22;9563;49.240;9.088;2024-02-15T11:34:44;18.50;99.90
18868;DHT22;9563;49.240;9.088;2024-02-15T11:40:15;18.80;99.90
18868;DHT22;9563;49.240;9.088;2024-02-15T11:42:42;18.70;99.90
18868;DHT22;9563;49.240;9.088;2024-02-15T11:45:10;18.60;99.90
18868;DHT22;9563;49.240;9.088;2024-02-15T11:47:37;18.40;99.90
18868;DHT22;9563;49.240;9.088;2024-02-15T11:50:08;18.40;99.90
18868;DHT22;9563;49.240;9.088;2024-02-15T11:52:38;18.10;99.90
18868;DHT22;9563;49.240;9.088;2024-02-15T11:55:05;18.10;99.90
18868;DHT22;9563;49.240;9.088;2024-02-15T11:57:36;18.30;99.90
18868;DHT22;9563;49.240;9.088;2024-02-15T12:00:20;18.40;99.90
18868;DHT22;9563;49.240;9.088;2024-02-15T12:03:01;17.80;99.90
18868;DHT22;9563;49.240;9.088;2024-02-15T12:05:48;17.80;99.90
18868;DHT22;9563;49.240;9.088;2024-02-15T12:08:33;17.90;99.90
18868;DHT22;9563;49.240;9.088;2024-02-15T12:11:17;18.10;99.90
18868;DHT22;9563;49.240;9.088;2024-02-15T12:14:01;18.00;99.90
18868;DHT22;9563;49.240;9.088;2024-02-15T12:17:01;17.80;99.90
18868;DHT22;9563;49.240;9.088;2024-02-15T12:19:48;18.00;99.90
18868;DHT22;9563;49.240;9.088;2024-02-15T12:22:18;18.00;99.90
18868;DHT22;9563;49.240;9.088;2024-02-15T12:24:53;17.80;99.90
18868;DHT22;9563;49.240;9.088;2024-02-15T12:27:21;17.70;99.90
18868;DHT22;9563;49.240;9.088;2024-02-15T12:29:53;17.50;99.90
18868;DHT22;9563;49.240;9.088;2024-02-15T12:32:21;17.30;99.90
18868;DHT22;9563;49.240;9.088;2024-02-15T12:34:48;17.40;99.90
18868;DHT22;9563;49.240;9.088;2024-02-15T12:37:19;17.50;99.90
18868;DHT22;9563;49.240;9.088;2024-02-15T12:39:47;17.60;99.90
18868;DHT22;9563;49.240;9.088;2024-02-15T12:42:15;17.70;99.90
18868;DHT22;9563;49.240;9.088;2024-02-15T12:44:44;17.90;99.90
18868;DHT22;9563;49.240;9.088;2024-02-15T12:47:21;18.00;99.90
18868;DHT22;9563;49.240;9.088;2024-02-15T12:49:48;17.90;99.90
18868;DHT22;9563;49.240;9.088;2024-02-15T12:52:37;17.70;99.90
18868;DHT22;9563;49.240;9.088;2024-02-15T12:55:12;17.50;99.90
18868;DHT22;9563;49.240;9.088;2024-02-15T12:57:40;17.60;99.90
18868;DHT22;9563;49.240;9.088;2024-02-15T13:00:12;17.70;99.90
18868;DHT22;9563;49.240;9.088;2024-02-15T13:02:44;17.70;99.90
18868;DHT22;9563;49.240;9.088;2024-02-15T13:05:12;17.60;99.90
18868;DHT22;9563;49.240;9.088;2024-02-15T13:07:41;17.60;99.90
18868;DHT22;9563;49.240;9.088;2024-02-15T13:10:08;17.40;99.90
18868;DHT22;9563;49.240;9.088;2024-02-15T13:12:36;17.40;99.90
18868;DHT22;9563;49.240;9.088;2024-02-15T13:15:04;17.40;99.90
18868;DHT22;9563;49.240;9.088;2024-02-15T13:17:33;17.40;99.90
18868;DHT22;9563;49.240;9.088;2024-02-15T13:20:00;17.50;99.90
18868;DHT22;9563;49.240;9.088;2024-02-15T13:22:36;17.50;99.90
18868;DHT22;9563;49.240;9.088;2024-02-15T13:25:06;17.40;99.90
18868;DHT22;9563;49.240;9.088;2024-02-15T13:27:34;17.40;99.90
18868;DHT22;9563;49.240;9.088;2024-02-15T13:30:02;17.50;99.90
18868;DHT22;9563;49.240;9.088;2024-02-15T13:32:29;17.50;99.90
18868;DHT22;9563;49.240;9.088;2024-02-15T13:34:56;17.50;99.90
18868;DHT22;9563;49.240;9.088;2024-02-15T13:37:27;17.50;99.90
18868;DHT22;9563;49.240;9.088;2024-02-15T13:39:54;17.50;99.90
18868;DHT22;9563;49.240;9.088;2024-02-15T13:42:22;17.50;99.90
18868;DHT22;9563;49.240;9.088;2024-02-15T13:44:49;17.30;99.90
18868;DHT22;9563;49.240;9.088;2024-02-15T13:47:16;17.40;99.90
18868;DHT22;9563;49.240;9.088;2024-02-15T13:49:43;17.40;99.90
18868;DHT22;9563;49.240;9.088;2024-02-15T13:52:09;17.40;99.90
18868;DHT22;9563;49.240;9.088;2024-02-15T13:54:37;17.40;99.90
18868;DHT22;9563;49.240;9.088;2024-02-15T13:57:04;17.40;99.90
18868;DHT22;9563;49.240;9.088;2024-02-15T13:59:34;17.40;99.90
18868;DHT22;9563;49.240;9.088;2024-02-15T14:02:01;17.40;99.90
18868;DHT22;9563;49.240;9.088;2024-02-15T14:04:29;17.40;99.90
18868;DHT22;9563;49.240;9.088;2024-02-15T14:06:57;17.50;99.90
18868;DHT22;9563;49.240;9.088;2024-02-15T14:09:25;17.50;99.90
18868;DHT22;9563;49.240;9.088;2024-02-15T14:11:53;17.40;99.90
18868;DHT22;9563;49.240;9.088;2024-02-15T14:14:19;17.40;99.90
18868;DHT22;9563;49.240;9.088;2024-02-15T14:16:48;17.30;99.90
18868;DHT22;9563;49.240;9.088;2024-02-15T14:19:15;17.30;99.90
18868;DHT22;9563;49.240;9.088;2024-02-15T14:21:43;17.40;99.90
18868;DHT22;9563;49.240;9.088;2024-02-15T14:24:10;17.50;99.90
18868;DHT22;9563;49.240;9.088;2024-02-15T14:26:37;17.50;99.90
18868;DHT22;9563;49.240;9.088;2024-02-15T14:29:04;17.40;99.90
18868;DHT22;9563;49.240;9.088;2024-02-15T14:31:31;17.30;99.90
18868;DHT22;9563;49.240;9.088;2024-02-15T14:34:17;17.30;99.90
18868;DHT22;9563;49.240;9.088;2024-02-15T14:36:46;17.20;99.90
18868;DHT22;9563;49.240;9.088;2024-02-15T14:39:13;17.30;99.90
18868;DHT22;9563;49.240;9.088;2024-02-15T14:41:40;17.40;99.90
18868;DHT22;9563;49.240;9.088;2024-02-15T14:44:09;17.40;99.90
18868;DHT22;9563;49.240;9.088;2024-02-15T14:46:38;17.40;99.90
18868;DHT22;9563;49.240;9.088;2024-02-15T14:49:06;17.40;99.90
18868;DHT22;9563;49.240;9.088;2024-02-15T14:51:35;17.40;99.90
18868;DHT22;9563;49.240;9.088;2024-02-15T14:54:04;17.40;99.90
18868;DHT22;9563;49.240;9.088;2024-02-15T14:56:31;17.50;99.90
18868;DHT22;9563;49.240;9.088;2024-02-15T14:58:59;17.40;99.90
18868;DHT22;9563;49.240;9.088;2024-02-15T15:01:26;17.50;99.90
18868;DHT22;9563;49.240;9.088;2024-02-15T15:03:55;17.40;99.90
18868;DHT22;9563;49.240;9.088;2024-02-15T15:06:24;17.40;99.90
18868;DHT22;9563;49.240;9.088;2024-02-15T15:09:09;17.40;99.90
18868;DHT22;9563;49.240;9.088;2024-02-15T15:11:54;17.40;99.90
18868;DHT22;9563;49.240;9.088;2024-02-15T15:14:38;17.20;99.90
18868;DHT22;9563;49.240;9.088;2024-02-15T15:17:06;17.20;99.90
18868;DHT22;9563;49.240;9.088;2024-02-15T15:19:32;17.10;99.90
18868;DHT22;9563;49.240;9.088;2024-02-15T15:22:01;17.00;99.90
18868;DHT22;9563;49.240;9.088;2024-02-15T15:24:31;17.00;99.90
18868;DHT22;9563;49.240;9.088;2024-02-15T15:26:59;16.90;99.90
18868;DHT22;9563;49.240;9.088;2024-02-15T15:29:26;16.90;99.90
18868;DHT22;9563;49.240;9.088;2024-02-15T15:31:53;16.90;99.90
18868;DHT22;9563;49.240;9.088;2024-02-15T15:34:19;16.80;99.90
18868;DHT22;9563;49.240;9.088;2024-02-15T15:36:46;16.80;99.90
18868;DHT22;9563;49.240;9.088;2024-02-15T15:39:13;16.70;99.90
18868;DHT22;9563;49.240;9.088;2024-02-15T15:41:45;16.60;99.90
18868;DHT22;9563;49.240;9.088;2024-02-15T15:44:12;16.60;99.90
18868;DHT22;9563;49.240;9.088;2024-02-15T15:46:39;16.60;99.90
18868;DHT22;9563;49.240;9.088;2024-02-15T15:49:06;16.50;99.90
18868;DHT22;9563;49.240;9.088;2024-02-15T15:51:33;16.50;99.90
18868;DHT22;9563;49.240;9.088;2024-02-15T15:54:00;16.40;99.90
18868;DHT22;9563;49.240;9.088;2024-02-15T15:56:27;16.30;99.90
18868;DHT22;9563;49.240;9.088;2024-02-15T15:58:55;16.30;99.90
18868;DHT22;9563;49.240;9.088;2024-02-15T16:01:23;16.20;99.90
18868;DHT22;9563;49.240;9.088;2024-02-15T16:03:50;16.20;99.90
18868;DHT22;9563;49.240;9.088;2024-02-15T16:06:18;16.10;99.90
18868;DHT22;9563;49.240;9.088;2024-02-15T16:08:45;16.00;99.90
18868;DHT22;9563;49.240;9.088;2024-02-15T16:11:13;15.90;99.90
18868;DHT22;9563;49.240;9.088;2024-02-15T16:13:42;15.80;99.90
18868;DHT22;9563;49.240;9.088;2024-02-15T16:16:13;15.70;99.90
18868;DHT22;9563;49.240;9.088;2024-02-15T16:18:41;15.60;99.90
18868;DHT22;9563;49.240;9.088;2024-02-15T16:21:08;15.50;99.90
18868;DHT22;9563;49.240;9.088;2024-02-15T16:23:35;15.50;99.90
18868;DHT22;9563;49.240;9.088;2024-02-15T16:26:02;15.40;99.90
18868;DHT22;9563;49.240;9.088;2024-02-15T16:28:31;15.40;99.90
18868;DHT22;9563;49.240;9.088;2024-02-15T16:30:58;15.30;99.90
18868;DHT22;9563;49.240;9.088;2024-02-15T16:33:26;15.30;99.90
18868;DHT22;9563;49.240;9.088;2024-02-15T16:35:53;15.30;99.90
18868;DHT22;9563;49.240;9.088;2024-02-15T16:38:20;15.30;99.90
18868;DHT22;9563;49.240;9.088;2024-02-15T16:40:49;15.20;99.90
18868;DHT22;9563;49.240;9.088;2024-02-15T16:43:16;15.20;99.90
18868;DHT22;9563;49.240;9.088;2024-02-15T16:45:43;15.20;99.90
18868;DHT22;9563;49.240;9.088;2024-02-15T16:48:10;15.00;99.90
18868;DHT22;9563;49.240;9.088;2024-02-15T16:50:38;15.00;99.90
18868;DHT22;9563;49.240;9.088;2024-02-15T16:53:07;14.90;99.90
18868;DHT22;9563;49.240;9.088;2024-02-15T16:55:34;14.90;99.90
18868;DHT22;9563;49.240;9.088;2024-02-15T16:58:01;14.80;99.90
18868;DHT22;9563;49.240;9.088;2024-02-15T17:00:33;14.80;99.90
18868;DHT22;9563;49.240;9.088;2024-02-15T17:03:01;14.70;99.90
18868;DHT22;9563;49.240;9.088;2024-02-15T17:05:31;14.60;99.90
18868;DHT22;9563;49.240;9.088;2024-02-15T17:07:59;14.60;99.90
18868;DHT22;9563;49.240;9.088;2024-02-15T17:10:26;14.50;99.90
18868;DHT22;9563;49.240;9.088;2024-02-15T17:12:54;14.40;99.90
18868;DHT22;9563;49.240;9.088;2024-02-15T17:15:21;14.40;99.90
18868;DHT22;9563;49.240;9.088;2024-02-15T17:17:52;14.30;99.90
18868;DHT22;9563;49.240;9.088;2024-02-15T17:20:19;14.30;99.90
18868;DHT22;9563;49.240;9.088;2024-02-15T17:22:48;14.20;99.90
18868;DHT22;9563;49.240;9.088;2024-02-15T17:25:17;14.20;99.90
18868;DHT22;9563;49.240;9.088;2024-02-15T17:27:45;14.10;99.90
18868;DHT22;9563;49.240;9.088;2024-02-15T17:30:12;14.00;99.90
18868;DHT22;9563;49.240;9.088;2024-02-15T17:32:40;14.00;99.90
18868;DHT22;9563;49.240;9.088;2024-02-15T17:35:09;14.00;99.90
18868;DHT22;9563;49.240;9.088;2024-02-15T17:37:39;14.00;99.90
18868;DHT22;9563;49.240;9.088;2024-02-15T17:40:06;14.00;99.90
18868;DHT22;9563;49.240;9.088;2024-02-15T17:42:38;14.00;99.90
18868;DHT22;9563;49.240;9.088;2024-02-15T17:45:06;13.90;99.90
18868;DHT22;9563;49.240;9.088;2024-02-15T17:47:36;13.90;99.90
18868;DHT22;9563;49.240;9.088;2024-02-15T17:50:05;13.90;99.90
18868;DHT22;9563;49.240;9.088;2024-02-15T17:52:34;13.90;99.90
18868;DHT22;9563;49.240;9.088;2024-02-15T17:55:01;13.80;99.90
18868;DHT22;9563;49.240;9.088;2024-02-15T17:57:30;13.90;99.90
18868;DHT22;9563;49.240;9.088;2024-02-15T17:59:59;13.90;99.90
18868;DHT22;9563;49.240;9.088;2024-02-15T18:02:26;13.90;99.90
18868;DHT22;9563;49.240;9.088;2024-02-15T18:04:53;13.90;99.90
18868;DHT22;9563;49.240;9.088;2024-02-15T18:07:20;13.80;99.90
18868;DHT22;9563;49.240;9.088;2024-02-15T18:09:47;13.90;99.90
18868;DHT22;9563;49.240;9.088;2024-02-15T18:12:16;13.90;99.90
18868;DHT22;9563;49.240;9.088;2024-02-15T18:14:46;13.90;99.90
18868;DHT22;9563;49.240;9.088;2024-02-15T18:17:14;13.90;99.90
18868;DHT22;9563;49.240;9.088;2024-02-15T18:19:41;13.90;99.90
18868;DHT22;9563;49.240;9.088;2024-02-15T18:22:09;13.90;99.90
18868;DHT22;9563;49.240;9.088;2024-02-15T18:24:36;13.90;99.90
18868;DHT22;9563;49.240;9.088;2024-02-15T18:27:03;13.90;99.90
18868;DHT22;9563;49.240;9.088;2024-02-15T18:29:30;13.90;99.90
18868;DHT22;9563;49.240;9.088;2024-02-15T18:31:58;13.90;99.90
18868;DHT22;9563;49.240;9.088;2024-02-15T18:34:26;13.70;99.90
18868;DHT22;9563;49.240;9.088;2024-02-15T18:36:53;13.70;99.90
18868;DHT22;9563;49.240;9.088;2024-02-15T18:39:20;13.70;99.90
18868;DHT22;9563;49.240;9.088;2024-02-15T18:41:46;13.70;99.90
18868;DHT22;9563;49.240;9.088;2024-02-15T18:44:15;13.70;99.90
18868;DHT22;9563;49.240;9.088;2024-02-15T18:46:43;13.70;99.90
18868;DHT22;9563;49.240;9.088;2024-02-15T18:49:10;13.70;99.90
18868;DHT22;9563;49.240;9.088;2024-02-15T18:51:39;13.70;99.90
18868;DHT22;9563;49.240;9.088;2024-02-15T18:54:06;13.70;99.90
18868;DHT22;9563;49.240;9.088;2024-02-15T18:56:33;13.70;99.90
18868;DHT22;9563;49.240;9.088;2024-02-15T18:58:59;13.70;99.90
18868;DHT22;9563;49.240;9.088;2024-02-15T19:01:30;13.70;99.90
18868;DHT22;9563;49.240;9.088;2024-02-15T19:03:58;13.60;99.90
18868;DHT22;9563;49.240;9.088;2024-02-15T19:06:25;13.60;99.90
18868;DHT22;9563;49.240;9.088;2024-02-15T19:08:53;13.60;99.90
18868;DHT22;9563;49.240;9.088;2024-02-15T19:11:21;13.50;99.90
18868;DHT22;9563;49.240;9.088;2024-02-15T19:13:51;13.50;99.90
18868;DHT22;9563;49.240;9.088;2024-02-15T19:16:19;13.50;99.90
18868;DHT22;9563;49.240;9.088;2024-02-15T19:18:49;13.50;99.90
18868;DHT22;9563;49.240;9.088;2024-02-15T19:21:17;13.50;99.90
18868;DHT22;9563;49.240;9.088;2024-02-15T19:23:44;13.40;99.90
18868;DHT22;9563;49.240;9.088;2024-02-15T19:26:13;13.50;99.90
18868;DHT22;9563;49.240;9.088;2024-02-15T19:28:40;13.40;99.90
18868;DHT22;9563;49.240;9.088;2024-02-15T19:31:09;13.50;99.90
18868;DHT22;9563;49.240;9.088;2024-02-15T19:33:37;13.40;99.90
18868;DHT22;9563;49.240;9.088;2024-02-15T19:36:05;13.40;99.90
18868;DHT22;9563;49.240;9.088;2024-02-15T19:38:33;13.40;99.90
18868;DHT22;9563;49.240;9.088;2024-02-15T19:41:00;13.40;99.90
18868;DHT22;9563;49.240;9.088;2024-02-15T19:43:28;13.40;99.90
18868;DHT22;9563;49.240;9.088;2024-02-15T19:45:55;13.40;99.90
18868;DHT22;9563;49.240;9.088;2024-02-15T19:48:23;13.40;99.90
18868;DHT22;9563;49.240;9.088;2024-02-15T19:50:50;13.40;99.90
18868;DHT22;9563;49.240;9.088;2024-02-15T19:53:16;13.40;99.90
18868;DHT22;9563;49.240;9.088;2024-02-15T19:55:45;13.30;99.90
18868;DHT22;9563;49.240;9.088;2024-02-15T19:58:12;13.30;99.90
18868;DHT22;9563;49.240;9.088;2024-02-15T20:00:41;13.30;99.90
18868;DHT22;9563;49.240;9.088;2024-02-15T20:03:08;13.20;99.90
18868;DHT22;9563;49.240;9.088;2024-02-15T20:05:35;13.20;99.90
18868;DHT22;9563;49.240;9.088;2024-02-15T20:08:04;13.20;99.90
18868;DHT22;9563;49.240;9.088;2024-02-15T20:10:32;13.20;99.90
18868;DHT22;9563;49.240;9.088;2024-02-15T20:13:01;13.20;99.90
18868;DHT22;9563;49.240;9.088;2024-02-15T20:15:27;13.10;99.90
18868;DHT22;9563;49.240;9.088;2024-02-15T20:17:56;13.10;99.90
18868;DHT22;9563;49.240;9.088;2024-02-15T20:20:23;13.00;99.90
18868;DHT22;9563;49.240;9.088;2024-02-15T20:22:49;13.00;99.90
18868;DHT22;9563;49.240;9.088;2024-02-15T20:25:16;13.00;99.90
18868;DHT22;9563;49.240;9.088;2024-02-15T20:27:43;12.90;99.90
18868;DHT22;9563;49.240;9.088;2024-02-15T20:30:10;12.90;99.90
18868;DHT22;9563;49.240;9.088;2024-02-15T20:32:37;12.80;99.90
18868;DHT22;9563;49.240;9.088;2024-02-15T20:35:06;12.80;99.90
18868;DHT22;9563;49.240;9.088;2024-02-15T20:37:33;12.90;99.90
18868;DHT22;9563;49.240;9.088;2024-02-15T20:40:01;12.90;99.90
18868;DHT22;9563;49.240;9.088;2024-02-15T20:42:28;12.90;99.90
18868;DHT22;9563;49.240;9.088;2024-02-15T20:44:55;12.80;99.90
18868;DHT22;9563;49.240;9.088;2024-02-15T20:47:24;12.80;99.90
18868;DHT22;9563;49.240;9.088;2024-02-15T20:49:54;12.80;99.90
18868;DHT22;9563;49.240;9.088;2024-02-15T20:52:23;12.80;99.90
18868;DHT22;9563;49.240;9.088;2024-02-15T20:54:50;12.80;99.90
18868;DHT22;9563;49.240;9.088;2024-02-15T20:57:17;12.80;99.90
18868;DHT22;9563;49.240;9.088;2024-02-15T20:59:43;12.80;99.90
18868;DHT22;9563;49.240;9.088;2024-02-15T21:02:09;12.90;99.90
18868;DHT22;9563;49.240;9.088;2024-02-15T21:04:36;12.90;99.90
18868;DHT22;9563;49.240;9.088;2024-02-15T21:07:03;12.80;99.90